Time;durP1;ratioP1;P1;durP2;ratioP2;P2;SDS_P1;SDS_P2;PMS_P1;PMS_P2;Temp;Humidity;BMP_temperature;BMP_pressure;BME280_temperature;BME280_humidity;BME280_pressure;Samples;Min_cycle;Max_cycle;Signal;HPM_P1;HPM_P2
2022/05/18 00:00:44;;;;;;;9.07;4.43;;;17.50;99.90;;;;;;5052102;28;20063;-73
2022/05/18 00:03:11;;;;;;;4.78;4.18;;;17.40;99.90;;;;;;5052014;28;20307;-73
2022/05/18 00:05:40;;;;;;;6.72;4.60;;;17.40;99.90;;;;;;5050205;28;20355;-74
2022/05/18 00:08:07;;;;;;;5.22;4.05;;;17.40;99.90;;;;;;5069475;28;20105;-74
2022/05/18 00:10:35;;;;;;;6.68;4.03;;;17.40;99.90;;;;;;5047909;28;20040;-74
2022/05/18 00:13:00;;;;;;;4.95;4.38;;;17.40;99.90;;;;;;5048539;28;20045;-74
2022/05/18 00:15:27;;;;;;;6.22;4.68;;;17.30;99.90;;;;;;5051184;28;20048;-74
2022/05/18 00:17:54;;;;;;;7.13;4.45;;;17.20;99.90;;;;;;5074505;28;20043;-74
2022/05/18 00:20:20;;;;;;;7.47;4.82;;;17.30;99.90;;;;;;5033625;28;20040;-74
2022/05/18 00:22:55;;;;;;;8.07;5.05;;;17.20;99.90;;;;;;5050569;28;20059;-74
2022/05/18 00:25:24;;;;;;;6.57;5.10;;;17.20;99.90;;;;;;5044801;28;20033;-74
2022/05/18 00:27:50;;;;;;;5.55;4.82;;;17.20;99.90;;;;;;5050753;28;20048;-74
2022/05/18 00:30:18;;;;;;;6.20;5.15;;;17.10;99.90;;;;;;5048291;28;20453;-74
2022/05/18 00:32:44;;;;;;;6.75;5.53;;;17.10;99.90;;;;;;5050833;28;20040;-74
2022/05/18 00:35:10;;;;;;;7.70;5.07;;;17.10;99.90;;;;;;5052686;28;20150;-74
2022/05/18 00:37:35;;;;;;;6.28;5.68;;;17.00;99.90;;;;;;5055935;28;20079;-74
2022/05/18 00:40:01;;;;;;;6.68;5.97;;;16.90;99.90;;;;;;5040219;28;20132;-74
2022/05/18 00:42:28;;;;;;;7.40;5.63;;;16.90;99.90;;;;;;5050396;28;20060;-74
2022/05/18 00:44:54;;;;;;;6.20;5.60;;;16.80;99.90;;;;;;5051422;28;20056;-74
2022/05/18 00:47:20;;;;;;;6.38;5.75;;;16.80;99.90;;;;;;5072823;28;20040;-74
2022/05/18 00:49:50;;;;;;;8.43;5.55;;;16.80;99.90;;;;;;5053304;28;20498;-74
2022/05/18 00:52:20;;;;;;;7.53;5.57;;;16.70;99.90;;;;;;5070469;28;20385;-74
2022/05/18 00:54:48;;;;;;;7.55;6.50;;;16.70;99.90;;;;;;5048287;28;20053;-74
2022/05/18 00:57:19;;;;;;;9.63;6.07;;;16.60;99.90;;;;;;5053439;28;20056;-74
2022/05/18 01:00:01;;;;;;;7.38;5.97;;;16.60;99.90;;;;;;5055479;28;21955;-74
2022/05/18 01:02:33;;;;;;;7.65;6.18;;;16.60;99.90;;;;;;5047955;28;20052;-74
2022/05/18 01:05:02;;;;;;;8.10;6.38;;;16.60;99.90;;;;;;5055693;28;20044;-74
2022/05/18 01:07:33;;;;;;;9.18;6.20;;;16.50;99.90;;;;;;5054909;28;20036;-74
2022/05/18 01:09:59;;;;;;;7.35;6.18;;;16.50;99.90;;;;;;5051533;28;20040;-74
2022/05/18 01:12:25;;;;;;;7.63;5.85;;;16.50;99.90;;;;;;5055131;28;20046;-74
2022/05/18 01:14:55;;;;;;;7.57;6.55;;;16.40;99.90;;;;;;5070843;28;20052;-74
2022/05/18 01:17:25;;;;;;;9.40;6.55;;;16.40;99.90;;;;;;5052366;28;20076;-74
2022/05/18 01:19:54;;;;;;;8.77;6.95;;;16.40;99.90;;;;;;5054721;28;20542;-74
2022/05/18 01:22:47;;;;;;;7.95;6.40;;;16.40;99.90;;;;;;5054992;28;20523;-73
2022/05/18 01:25:39;;;;;;;7.22;6.53;;;16.30;99.90;;;;;;5052310;28;20042;-74
2022/05/18 01:28:06;;;;;;;7.07;6.38;;;16.30;99.90;;;;;;5053803;28;20116;-74
2022/05/18 01:30:33;;;;;;;10.63;6.38;;;16.30;99.90;;;;;;5070175;28;20150;-74
2022/05/18 01:33:03;;;;;;;8.82;6.10;;;16.20;99.90;;;;;;5052214;28;20032;-74
2022/05/18 01:35:31;;;;;;;9.80;6.50;;;16.20;99.90;;;;;;5074253;28;20036;-74
2022/05/18 01:37:57;;;;;;;7.78;6.20;;;16.20;99.90;;;;;;5051225;28;20047;-74
2022/05/18 01:40:37;;;;;;;8.02;6.20;;;16.20;99.90;;;;;;5053728;28;20532;-74
2022/05/18 01:43:15;;;;;;;7.07;6.22;;;16.10;99.90;;;;;;5072940;28;20036;-74
2022/05/18 01:45:41;;;;;;;8.25;7.18;;;16.20;99.90;;;;;;5051460;28;20102;-74
2022/05/18 01:48:12;;;;;;;8.15;6.38;;;16.10;99.90;;;;;;5071747;28;20037;-74
2022/05/18 01:50:40;;;;;;;8.93;6.63;;;16.10;99.90;;;;;;5054634;28;20044;-74
2022/05/18 01:53:05;;;;;;;7.80;6.85;;;16.10;99.90;;;;;;5067094;28;20063;-74
2022/05/18 01:55:32;;;;;;;8.82;6.78;;;16.10;99.90;;;;;;5050962;28;20033;-74
2022/05/18 01:57:58;;;;;;;6.82;6.13;;;16.10;99.90;;;;;;5047590;28;20123;-74
2022/05/18 02:00:24;;;;;;;7.50;6.47;;;16.10;99.90;;;;;;5048798;28;20092;-74
2022/05/18 02:02:50;;;;;;;8.13;6.60;;;16.10;99.90;;;;;;5049300;28;20052;-74
2022/05/18 02:05:15;;;;;;;7.32;6.63;;;16.00;99.90;;;;;;5054691;28;20033;-74
2022/05/18 02:07:41;;;;;;;7.63;6.82;;;16.00;99.90;;;;;;5050664;28;20037;-74
2022/05/18 02:10:07;;;;;;;9.30;6.90;;;16.00;99.90;;;;;;5047960;28;20662;-74
2022/05/18 02:12:33;;;;;;;10.77;7.03;;;15.90;99.90;;;;;;5047815;28;20549;-74
2022/05/18 02:14:58;;;;;;;7.32;6.60;;;15.90;99.90;;;;;;5049676;28;20045;-74
2022/05/18 02:17:25;;;;;;;7.40;6.70;;;15.90;99.90;;;;;;5045039;28;20051;-74
2022/05/18 02:19:51;;;;;;;9.23;7.50;;;15.80;99.90;;;;;;5048223;28;20046;-74
2022/05/18 02:22:16;;;;;;;9.02;7.00;;;15.80;99.90;;;;;;5046958;28;20041;-74
2022/05/18 02:24:42;;;;;;;9.25;7.20;;;15.70;99.90;;;;;;5046308;28;20071;-74
2022/05/18 02:27:08;;;;;;;8.40;7.07;;;15.80;99.90;;;;;;5050101;28;20037;-74
2022/05/18 02:29:34;;;;;;;7.10;6.40;;;15.70;99.90;;;;;;5048637;28;20041;-74
2022/05/18 02:32:00;;;;;;;8.73;6.72;;;15.70;99.90;;;;;;5041719;28;21855;-74
2022/05/18 02:34:26;;;;;;;8.60;6.60;;;15.70;99.90;;;;;;5038412;28;20120;-74
2022/05/18 02:36:51;;;;;;;10.02;6.70;;;15.70;99.90;;;;;;5048462;28;20044;-74
2022/05/18 02:39:20;;;;;;;8.02;6.82;;;15.70;99.90;;;;;;5041740;28;20099;-74
2022/05/18 02:41:47;;;;;;;9.98;6.95;;;15.70;99.90;;;;;;5042473;28;20041;-74
2022/05/18 02:44:12;;;;;;;8.55;7.07;;;15.70;99.90;;;;;;5043067;28;20045;-75
2022/05/18 02:46:38;;;;;;;9.40;6.95;;;15.70;99.90;;;;;;5049906;28;20068;-74
2022/05/18 02:49:04;;;;;;;9.20;7.00;;;15.60;99.90;;;;;;5048332;28;20391;-74
2022/05/18 02:51:30;;;;;;;7.95;7.10;;;15.60;99.90;;;;;;5050119;28;20041;-74
2022/05/18 02:53:56;;;;;;;10.20;7.43;;;15.60;99.90;;;;;;5049098;28;20102;-74
2022/05/18 02:56:25;;;;;;;7.30;6.57;;;15.50;99.90;;;;;;5053663;28;20037;-74
2022/05/18 02:58:53;;;;;;;6.95;6.25;;;15.50;99.90;;;;;;5049308;28;20053;-74
2022/05/18 03:01:22;;;;;;;8.20;6.68;;;15.50;99.90;;;;;;5049558;28;20494;-74
2022/05/18 03:03:48;;;;;;;7.60;6.82;;;15.50;99.90;;;;;;5043451;28;20041;-74
2022/05/18 03:06:16;;;;;;;10.68;6.93;;;15.50;99.90;;;;;;5049380;28;20033;-74
2022/05/18 03:08:43;;;;;;;7.72;6.93;;;15.50;99.90;;;;;;5044523;28;20044;-74
2022/05/18 03:11:09;;;;;;;11.00;7.28;;;15.40;99.90;;;;;;5045844;28;20079;-74
2022/05/18 03:13:35;;;;;;;7.75;7.03;;;15.40;99.90;;;;;;5050033;28;20630;-74
2022/05/18 03:16:02;;;;;;;7.60;6.90;;;15.30;99.90;;;;;;5049166;28;20049;-73
2022/05/18 03:18:27;;;;;;;8.75;6.57;;;15.30;99.90;;;;;;5049790;28;20055;-74
2022/05/18 03:23:37;;;;;;;10.48;7.13;;;15.30;99.90;;;;;;5062415;28;20523;-74
2022/05/18 03:26:14;;;;;;;10.07;7.22;;;15.20;99.90;;;;;;5048118;28;20041;-74
2022/05/18 03:28:42;;;;;;;8.35;7.55;;;15.20;99.90;;;;;;5047952;28;20123;-74
2022/05/18 03:31:08;;;;;;;8.88;7.93;;;15.10;99.90;;;;;;5049860;28;20033;-74
2022/05/18 03:33:35;;;;;;;13.02;7.85;;;15.10;99.90;;;;;;5030990;28;20041;-75
2022/05/18 03:36:01;;;;;;;9.05;7.97;;;15.10;99.90;;;;;;5049117;28;20618;-74
2022/05/18 03:38:27;;;;;;;7.07;6.38;;;15.10;99.90;;;;;;5047245;28;20179;-74
2022/05/18 03:40:53;;;;;;;10.75;6.65;;;15.10;99.90;;;;;;5047353;28;20052;-74
2022/05/18 03:43:20;;;;;;;11.35;7.22;;;15.00;99.90;;;;;;5048541;28;20478;-74
2022/05/18 03:45:46;;;;;;;8.68;7.50;;;15.00;99.90;;;;;;5047959;28;20052;-74
2022/05/18 03:48:13;;;;;;;9.35;7.63;;;15.00;99.90;;;;;;5048916;28;20067;-74
2022/05/18 03:50:42;;;;;;;13.18;7.80;;;15.00;99.90;;;;;;5049135;28;20048;-74
2022/05/18 03:53:09;;;;;;;7.93;6.88;;;15.00;99.90;;;;;;5058420;28;20053;-74
2022/05/18 03:55:37;;;;;;;8.32;7.53;;;15.00;99.90;;;;;;5052485;28;20044;-75
2022/05/18 03:58:03;;;;;;;8.80;7.82;;;15.00;99.90;;;;;;5045747;28;20045;-74
2022/05/18 04:00:28;;;;;;;8.90;7.68;;;14.90;99.90;;;;;;5051167;28;20032;-74
2022/05/18 04:02:54;;;;;;;9.02;7.57;;;14.90;99.90;;;;;;5052931;28;20080;-74
2022/05/18 04:05:20;;;;;;;11.38;8.15;;;14.90;99.90;;;;;;5052145;28;20040;-74
2022/05/18 04:07:47;;;;;;;8.70;7.82;;;14.80;99.90;;;;;;5068636;28;20490;-74
2022/05/18 04:10:14;;;;;;;9.90;7.80;;;14.80;99.90;;;;;;5049111;28;20805;-75
2022/05/18 04:12:41;;;;;;;9.02;7.88;;;14.90;99.90;;;;;;5051371;28;20058;-74
2022/05/18 04:15:07;;;;;;;9.60;7.63;;;14.90;99.90;;;;;;5052045;28;20040;-74
2022/05/18 04:17:33;;;;;;;9.10;8.00;;;14.90;99.90;;;;;;5068584;28;20509;-74
2022/05/18 04:19:59;;;;;;;11.00;8.88;;;14.90;99.90;;;;;;5052010;28;20040;-74
2022/05/18 04:22:25;;;;;;;9.82;7.95;;;14.90;99.90;;;;;;5052411;28;20044;-74
2022/05/18 04:24:51;;;;;;;11.85;7.88;;;14.90;99.90;;;;;;5052170;28;20052;-74
2022/05/18 04:27:16;;;;;;;9.43;8.52;;;14.90;99.90;;;;;;5051441;28;20037;-74
2022/05/18 04:29:42;;;;;;;10.27;8.15;;;15.00;99.90;;;;;;5052389;28;20033;-74
2022/05/18 04:32:08;;;;;;;15.05;8.07;;;15.00;99.90;;;;;;5051032;28;20123;-74
2022/05/18 04:34:34;;;;;;;9.98;7.50;;;15.00;99.90;;;;;;5050425;28;20072;-74
2022/05/18 04:37:00;;;;;;;15.70;8.35;;;15.10;99.90;;;;;;5051855;28;20428;-74
2022/05/18 04:39:26;;;;;;;9.30;8.00;;;15.10;99.90;;;;;;5050870;28;20047;-74
2022/05/18 04:41:51;;;;;;;13.35;8.10;;;15.20;99.90;;;;;;5034037;28;20094;-74
2022/05/18 04:44:17;;;;;;;11.18;7.85;;;15.20;99.90;;;;;;5064604;28;20391;-74
2022/05/18 04:46:43;;;;;;;87.05;12.05;;;15.30;99.90;;;;;;5050648;28;20402;-74
2022/05/18 04:49:12;;;;;;;9.00;8.10;;;15.30;99.90;;;;;;5050227;28;20041;-74
2022/05/18 04:51:38;;;;;;;11.18;8.00;;;15.40;99.90;;;;;;5068297;28;20127;-74
2022/05/18 04:54:04;;;;;;;10.13;8.43;;;15.50;99.90;;;;;;5051327;28;20151;-74
2022/05/18 04:56:30;;;;;;;24.00;8.77;;;15.50;99.90;;;;;;5052422;28;20103;-74
2022/05/18 04:58:56;;;;;;;10.55;7.88;;;15.60;99.90;;;;;;5052855;28;20075;-74
2022/05/18 05:01:25;;;;;;;8.77;7.88;;;15.70;99.90;;;;;;5070506;28;20029;-74
2022/05/18 05:03:50;;;;;;;8.85;7.60;;;15.80;99.90;;;;;;5052518;28;20080;-74
2022/05/18 05:06:16;;;;;;;9.95;8.25;;;15.80;99.90;;;;;;5050133;28;20072;-74
2022/05/18 05:08:42;;;;;;;9.38;8.07;;;15.90;99.90;;;;;;5046296;28;20422;-73
2022/05/18 05:11:08;;;;;;;9.57;8.63;;;16.00;99.90;;;;;;5048159;28;20486;-74
2022/05/18 05:13:34;;;;;;;13.32;8.82;;;16.10;99.90;;;;;;5065583;28;20028;-74
2022/05/18 05:16:08;;;;;;;9.15;8.13;;;16.30;99.90;;;;;;5058599;28;20080;-74
2022/05/18 05:18:34;;;;;;;10.88;8.65;;;16.30;99.90;;;;;;5083624;28;20044;-74
2022/05/18 05:21:00;;;;;;;11.50;8.70;;;16.40;99.90;;;;;;5074222;28;20043;-74
2022/05/18 05:23:27;;;;;;;9.65;8.25;;;16.50;99.90;;;;;;5054334;28;20037;-74
2022/05/18 05:25:54;;;;;;;98.80;14.73;;;16.60;99.90;;;;;;5039280;28;20040;-74
2022/05/18 05:28:20;;;;;;;9.18;8.20;;;16.70;99.90;;;;;;5055691;28;20048;-74
2022/05/18 05:30:46;;;;;;;13.98;8.82;;;16.80;99.90;;;;;;5055768;28;20032;-74
2022/05/18 05:33:12;;;;;;;29.02;9.23;;;16.90;99.90;;;;;;5055405;28;20112;-74
2022/05/18 05:35:41;;;;;;;9.60;8.70;;;17.00;99.90;;;;;;5073035;28;20127;-74
2022/05/18 05:38:07;;;;;;;10.93;9.52;;;17.20;99.90;;;;;;5061599;28;20045;-74
2022/05/18 05:40:33;;;;;;;9.38;8.45;;;17.30;99.90;;;;;;5054070;28;20036;-74
2022/05/18 05:42:58;;;;;;;10.95;8.55;;;17.40;99.90;;;;;;5053334;28;20032;-74
2022/05/18 05:45:24;;;;;;;10.50;9.48;;;17.60;99.90;;;;;;5055445;28;20037;-74
2022/05/18 05:47:49;;;;;;;9.35;8.45;;;17.70;99.90;;;;;;5054379;28;20114;-74
2022/05/18 05:50:15;;;;;;;9.60;8.63;;;17.90;99.90;;;;;;5055216;28;20040;-74
2022/05/18 05:52:41;;;;;;;9.75;8.40;;;19.10;99.90;;;;;;5057909;23;20060;-72
2022/05/18 05:55:07;;;;;;;9.18;7.90;;;20.70;99.90;;;;;;5050123;28;20068;-72
2022/05/18 05:57:33;;;;;;;8.27;7.50;;;22.10;99.90;;;;;;5041988;28;20033;-73
2022/05/18 06:00:00;;;;;;;10.38;7.50;;;23.30;99.90;;;;;;5034345;28;20048;-72
2022/05/18 06:02:26;;;;;;;7.82;7.07;;;24.30;99.90;;;;;;5057267;28;20068;-72
2022/05/18 06:04:52;;;;;;;8.55;6.70;;;25.10;98.30;;;;;;5053263;28;20142;-72
2022/05/18 06:07:17;;;;;;;12.85;7.30;;;26.10;98.90;;;;;;5034482;28;20056;-72
2022/05/18 06:09:43;;;;;;;7.93;7.13;;;26.80;94.80;;;;;;5028604;28;20032;-72
2022/05/18 06:12:09;;;;;;;9.38;6.72;;;27.50;95.50;;;;;;5046837;28;20122;-72
2022/05/18 06:14:35;;;;;;;8.48;5.93;;;28.20;94.30;;;;;;5034622;28;20068;-72
2022/05/18 06:17:00;;;;;;;7.20;6.45;;;28.60;91.80;;;;;;5034812;28;20162;-72
2022/05/18 06:19:26;;;;;;;10.13;6.60;;;28.90;89.10;;;;;;5034969;28;20072;-73
2022/05/18 06:21:51;;;;;;;9.88;6.30;;;29.10;87.10;;;;;;5034004;28;20067;-73
2022/05/18 06:24:19;;;;;;;8.20;6.40;;;;;;;;;;5030074;28;20183;-73
2022/05/18 06:26:45;;;;;;;6.95;5.80;;;29.70;83.10;;;;;;5048789;28;20048;-73
2022/05/18 06:29:11;;;;;;;7.15;6.05;;;30.10;82.70;;;;;;5032863;28;20052;-73
2022/05/18 06:31:37;;;;;;;6.93;5.78;;;30.50;80.50;;;;;;5039591;28;20060;-73
2022/05/18 06:34:03;;;;;;;12.68;6.30;;;30.70;77.70;;;;;;5019010;28;20064;-73
2022/05/18 06:36:30;;;;;;;8.55;6.10;;;31.00;75.80;;;;;;5012094;28;20149;-73
2022/05/18 06:38:55;;;;;;;6.70;6.00;;;31.10;74.40;;;;;;5028386;28;20051;-73
2022/05/18 06:41:21;;;;;;;7.07;6.18;;;31.10;73.80;;;;;;5051047;28;20048;-73
2022/05/18 06:43:54;;;;;;;7.20;6.13;;;31.70;72.30;;;;;;5042113;28;20059;-73
2022/05/18 06:46:21;;;;;;;9.27;6.40;;;32.00;71.60;;;;;;5028857;28;20033;-73
2022/05/18 06:48:48;;;;;;;7.18;6.28;;;32.00;69.30;;;;;;5031203;28;20082;-73
2022/05/18 06:51:23;;;;;;;10.52;6.47;;;32.10;67.80;;;;;;5026654;28;20033;-73
2022/05/18 06:53:51;;;;;;;6.30;5.20;;;32.00;67.10;;;;;;5007608;28;20169;-73
2022/05/18 06:56:21;;;;;;;8.10;5.85;;;32.30;67.50;;;;;;5030873;28;20053;-73
2022/05/18 06:58:48;;;;;;;7.85;6.00;;;32.60;67.50;;;;;;5025859;28;20168;-73
2022/05/18 07:01:15;;;;;;;7.13;6.40;;;32.80;65.70;;;;;;5031230;28;20048;-73
2022/05/18 07:03:41;;;;;;;18.98;7.07;;;32.50;63.70;;;;;;5028662;28;20505;-72
2022/05/18 07:06:07;;;;;;;6.78;6.13;;;32.90;65.10;;;;;;5026998;28;20407;-73
2022/05/18 07:08:33;;;;;;;17.02;6.53;;;33.20;63.90;;;;;;5031767;28;20483;-73
2022/05/18 07:10:59;;;;;;;8.43;5.60;;;33.10;61.90;;;;;;5024624;28;20037;-73
2022/05/18 07:13:24;;;;;;;6.15;5.55;;;33.50;62.20;;;;;;5030833;28;20125;-73
2022/05/18 07:15:50;;;;;;;7.32;5.97;;;;;;;;;;5028973;28;20040;-72
2022/05/18 07:18:16;;;;;;;8.02;5.80;;;34.10;67.80;;;;;;5030598;28;20038;-72
2022/05/18 07:20:42;;;;;;;6.70;5.95;;;34.50;74.10;;;;;;5029747;28;20087;-72
2022/05/18 07:23:09;;;;;;;6.78;6.10;;;33.80;73.30;;;;;;5030069;28;20129;-72
2022/05/18 07:25:35;;;;;;;8.63;5.88;;;34.00;73.70;;;;;;5030445;28;20038;-73
2022/05/18 07:28:01;;;;;;;7.63;5.60;;;34.10;72.70;;;;;;5013691;28;20112;-72
2022/05/18 07:30:27;;;;;;;6.70;6.00;;;34.60;76.50;;;;;;5031472;28;20069;-72
2022/05/18 07:32:52;;;;;;;15.77;6.32;;;34.60;72.10;;;;;;5029134;28;22285;-72
2022/05/18 07:35:18;;;;;;;6.30;5.03;;;34.80;71.90;;;;;;5036794;28;20072;-73
2022/05/18 07:37:43;;;;;;;7.20;5.88;;;34.20;70.30;;;;;;5041556;28;20132;-72
2022/05/18 07:40:09;;;;;;;9.00;5.93;;;34.40;70.50;;;;;;5026955;28;20075;-72
2022/05/18 07:42:35;;;;;;;8.05;6.25;;;34.40;69.30;;;;;;5003229;28;20095;-72
2022/05/18 07:45:01;;;;;;;8.40;6.03;;;34.70;68.70;;;;;;5028764;28;20049;-72
2022/05/18 07:47:31;;;;;;;6.40;5.32;;;34.40;67.40;;;;;;5028879;28;20041;-72
2022/05/18 07:49:57;;;;;;;7.38;5.30;;;34.20;67.30;;;;;;5013883;28;20041;-72
2022/05/18 07:52:23;;;;;;;9.15;5.95;;;34.40;68.00;;;;;;5030239;28;20128;-72
2022/05/18 07:54:50;;;;;;;7.45;5.50;;;34.50;67.40;;;;;;5033298;28;20049;-72
2022/05/18 07:57:17;;;;;;;8.45;5.55;;;34.50;66.80;;;;;;5033329;28;20049;-72
2022/05/18 07:59:43;;;;;;;7.38;6.13;;;34.40;66.60;;;;;;5049320;28;20045;-72
2022/05/18 08:02:08;;;;;;;9.43;5.38;;;33.80;65.30;;;;;;5051178;28;20778;-72
2022/05/18 08:04:34;;;;;;;5.65;5.03;;;33.30;67.80;;;;;;5051135;28;20094;-72
2022/05/18 08:06:59;;;;;;;5.88;5.07;;;32.40;68.60;;;;;;5051112;28;20041;-72
2022/05/18 08:09:25;;;;;;;6.88;5.18;;;31.80;75.90;;;;;;5029183;28;20029;-72
2022/05/18 08:17:21;;;;;;;9.15;4.53;;;29.70;61.40;;;;;;5032725;28;20076;-72
2022/05/18 08:19:47;;;;;;;6.70;4.75;;;29.30;62.70;;;;;;5056983;28;20045;-72
2022/05/18 08:22:14;;;;;;;8.52;4.47;;;29.10;62.70;;;;;;5032832;28;20715;-71
2022/05/18 08:24:39;;;;;;;9.13;5.03;;;28.90;63.30;;;;;;5038864;28;20047;-72
2022/05/18 08:27:16;;;;;;;6.43;4.68;;;28.30;62.90;;;;;;5020837;28;20387;-71
2022/05/18 08:29:41;;;;;;;25.58;5.05;;;28.10;62.80;;;;;;5017629;28;20116;-71
2022/05/18 08:32:07;;;;;;;9.40;4.40;;;28.00;64.30;;;;;;5036853;28;20120;-71
2022/05/18 08:34:33;;;;;;;8.60;4.13;;;27.80;63.40;;;;;;5011465;28;20150;-71
2022/05/18 08:37:00;;;;;;;24.00;5.72;;;27.90;64.80;;;;;;5032951;28;20040;-72
2022/05/18 08:39:26;;;;;;;4.93;3.90;;;28.00;65.30;;;;;;5032738;28;20037;-72
2022/05/18 08:41:52;;;;;;;6.57;3.88;;;27.90;65.30;;;;;;5024042;28;20045;-71
2022/05/18 08:44:34;;;;;;;4.15;3.50;;;28.00;64.00;;;;;;5029557;28;20091;-71
2022/05/18 08:47:06;;;;;;;7.50;4.80;;;28.00;63.90;;;;;;5048739;28;20045;-71
2022/05/18 08:49:34;;;;;;;7.18;4.20;;;27.90;63.60;;;;;;5050172;28;20037;-72
2022/05/18 08:52:37;;;;;;;6.70;4.68;;;27.80;63.70;;;;;;5032009;28;20037;-72
2022/05/18 08:55:22;;;;;;;5.43;4.55;;;27.80;64.10;;;;;;5024308;28;20107;-71
2022/05/18 08:57:49;;;;;;;6.13;4.30;;;27.70;64.70;;;;;;5036128;28;20048;-71
2022/05/18 09:00:17;;;;;;;6.80;4.50;;;27.80;65.50;;;;;;5059717;28;20071;-71
2022/05/18 09:02:43;;;;;;;6.30;4.78;;;27.80;64.90;;;;;;5050123;28;20086;-71
2022/05/18 09:05:34;;;;;;;6.22;5.40;;;27.90;64.10;;;;;;5035888;28;20854;-71
2022/05/18 09:08:10;;;;;;;9.23;5.75;;;27.90;63.50;;;;;;5024299;28;20045;-71
2022/05/18 09:10:49;;;;;;;10.50;5.57;;;27.80;63.70;;;;;;5045466;28;20065;-71
2022/05/18 09:13:15;;;;;;;12.27;6.32;;;27.80;64.40;;;;;;5032826;28;20056;-71
2022/05/18 09:16:12;;;;;;;6.45;5.70;;;27.90;63.50;;;;;;5041355;28;20055;-71
2022/05/18 09:18:43;;;;;;;11.48;5.50;;;27.80;63.90;;;;;;5050078;28;20045;-71
2022/05/18 09:21:25;;;;;;;14.85;5.03;;;27.60;65.00;;;;;;5068027;28;20083;-71
2022/05/18 09:24:01;;;;;;;;;;;27.70;66.40;;;;;;5042029;28;20037;-71
2022/05/18 09:26:45;;;;;;;8.52;5.00;;;27.80;65.50;;;;;;5034420;28;20282;-71
2022/05/18 09:29:39;;;;;;;7.10;4.90;;;27.80;65.50;;;;;;5049694;28;20025;-71
2022/05/18 09:32:29;;;;;;;8.52;5.70;;;27.90;65.10;;;;;;5023655;28;20052;-72
2022/05/18 09:35:07;;;;;;;6.10;5.20;;;27.80;64.90;;;;;;5027119;28;20130;-71
2022/05/18 09:38:11;;;;;;;8.27;4.60;;;27.90;64.60;;;;;;5046147;28;20029;-71
2022/05/18 09:40:46;;;;;;;8.77;5.50;;;27.90;64.70;;;;;;4933255;29;20105;-71
2022/05/18 09:43:26;;;;;;;9.45;5.50;;;28.10;64.90;;;;;;5019619;28;20052;-71
2022/05/18 09:45:54;;;;;;;6.65;5.47;;;28.00;65.00;;;;;;5051068;28;20112;-71
2022/05/18 09:48:41;;;;;;;8.30;5.60;;;28.10;64.30;;;;;;5017797;28;20041;-72
2022/05/18 09:51:08;;;;;;;7.40;5.15;;;28.20;64.20;;;;;;5050407;28;20502;-72
2022/05/18 09:53:36;;;;;;;9.50;4.75;;;28.20;64.30;;;;;;5053102;28;20076;-71
2022/05/18 09:56:01;;;;;;;4.97;4.43;;;28.20;64.80;;;;;;5035031;28;20076;-71
2022/05/18 09:58:37;;;;;;;6.47;4.10;;;28.20;64.80;;;;;;5053208;28;20061;-75
2022/05/18 10:09:24;;;;;;;8.32;5.00;;;28.30;65.20;;;;;;5034756;28;20068;-75
2022/05/18 10:11:50;;;;;;;7.80;3.97;;;28.40;64.00;;;;;;5051334;28;20041;-75
2022/05/18 10:14:29;;;;;;;8.43;4.47;;;28.40;65.90;;;;;;5052384;28;20051;-75
2022/05/18 10:17:07;;;;;;;7.60;4.60;;;28.40;65.00;;;;;;5034886;28;20045;-75
2022/05/18 10:19:56;;;;;;;8.52;3.78;;;28.50;65.00;;;;;;5041293;28;20066;-75
2022/05/18 10:22:30;;;;;;;7.18;4.35;;;28.40;64.50;;;;;;5019710;28;20432;-75
2022/05/18 10:24:58;;;;;;;5.57;4.55;;;28.40;64.80;;;;;;5031427;28;20398;-75
2022/05/18 10:27:28;;;;;;;5.70;4.57;;;28.50;64.40;;;;;;5021099;28;20120;-75
2022/05/18 10:30:03;;;;;;;6.60;4.83;;;28.60;63.70;;;;;;5031588;28;20037;-75
2022/05/18 10:32:31;;;;;;;5.63;4.90;;;28.60;64.70;;;;;;5025215;28;20043;-75
2022/05/18 10:34:59;;;;;;;8.05;6.15;;;28.70;64.30;;;;;;5030445;28;20056;-75
2022/05/18 10:37:37;;;;;;;8.45;6.05;;;28.70;64.10;;;;;;5046430;28;20063;-75
2022/05/18 10:40:09;;;;;;;6.90;6.32;;;28.70;64.50;;;;;;5039511;28;20040;-75
2022/05/18 10:42:53;;;;;;;7.70;6.25;;;28.80;64.40;;;;;;5029794;28;20052;-75
2022/05/18 10:45:31;;;;;;;7.25;5.70;;;28.80;65.70;;;;;;5026712;28;20132;-76
2022/05/18 10:48:08;;;;;;;8.43;5.80;;;28.90;65.30;;;;;;5031953;28;20037;-75
2022/05/18 10:50:37;;;;;;;10.50;7.15;;;28.90;64.50;;;;;;5026691;28;20041;-76
2022/05/18 10:53:17;;;;;;;11.27;6.00;;;28.90;64.60;;;;;;5031637;28;20421;-75
2022/05/18 10:56:03;;;;;;;9.18;5.60;;;29.00;64.80;;;;;;5058358;28;20402;-75
2022/05/18 10:58:48;;;;;;;8.25;5.30;;;29.10;67.90;;;;;;5033982;28;20549;-76
2022/05/18 11:01:22;;;;;;;9.25;5.25;;;29.10;64.90;;;;;;5034166;28;20052;-75
2022/05/18 11:03:53;;;;;;;9.90;4.53;;;29.10;65.40;;;;;;5033514;28;21531;-76
2022/05/18 11:06:33;;;;;;;12.43;5.07;;;29.10;65.70;;;;;;5036397;28;20044;-75
2022/05/18 11:09:06;;;;;;;6.85;6.03;;;29.30;64.10;;;;;;5023604;28;20033;-75
2022/05/18 11:11:58;;;;;;;12.23;6.97;;;29.40;63.30;;;;;;5036689;28;20051;-75
2022/05/18 11:14:40;;;;;;;10.05;6.60;;;29.30;63.20;;;;;;5039356;28;20051;-75
2022/05/18 11:17:27;;;;;;;9.10;7.00;;;29.10;64.40;;;;;;5050155;28;20482;-75
2022/05/18 11:20:14;;;;;;;8.13;5.88;;;28.70;65.00;;;;;;5043647;28;20045;-76
2022/05/18 11:22:54;;;;;;;9.88;7.57;;;28.90;64.70;;;;;;5032077;28;20045;-75
2022/05/18 11:25:45;;;;;;;8.48;7.35;;;29.00;64.30;;;;;;5062074;28;20040;-76
2022/05/18 11:28:34;;;;;;;9.55;7.32;;;28.80;64.90;;;;;;5019618;28;20056;-76
2022/05/18 11:31:41;;;;;;;9.52;7.85;;;29.00;64.80;;;;;;5032804;28;20048;-76
2022/05/18 11:34:16;;;;;;;7.55;4.60;;;28.90;64.80;;;;;;5002957;28;20064;-76
2022/05/18 11:37:20;;;;;;;6.35;4.32;;;29.00;65.30;;;;;;5015719;28;20041;-76
2022/05/18 11:40:23;;;;;;;7.68;5.10;;;29.00;65.70;;;;;;5035860;28;20071;-76
2022/05/18 11:43:28;;;;;;;7.72;5.38;;;29.20;65.00;;;;;;5040769;28;20043;-76
2022/05/18 11:46:18;;;;;;;12.00;6.22;;;29.20;63.00;;;;;;5052715;28;20074;-76
2022/05/18 11:48:46;;;;;;;8.70;4.82;;;29.40;63.80;;;;;;5031601;28;20045;-75
2022/05/18 11:51:53;;;;;;;8.05;4.25;;;29.40;62.50;;;;;;5033350;28;20045;-76
2022/05/18 11:54:28;;;;;;;5.65;3.50;;;29.60;62.50;;;;;;5025567;28;20095;-76
2022/05/18 11:57:17;;;;;;;9.40;5.38;;;29.70;62.50;;;;;;5033387;28;20397;-74
2022/05/18 12:00:08;;;;;;;9.25;7.22;;;29.80;62.50;;;;;;5032903;28;20472;-74
2022/05/18 12:03:03;;;;;;;12.80;7.20;;;29.80;62.60;;;;;;5053406;28;20040;-73
2022/05/18 12:05:53;;;;;;;10.95;4.90;;;29.70;63.60;;;;;;5055433;28;20720;-75
2022/05/18 12:08:48;;;;;;;7.55;4.82;;;29.60;65.30;;;;;;5031258;28;20112;-74
2022/05/18 12:11:29;;;;;;;6.93;3.85;;;29.70;63.00;;;;;;5018626;28;20064;-71
2022/05/18 12:14:02;;;;;;;7.97;5.65;;;30.00;64.70;;;;;;5050836;28;20045;-71
2022/05/18 12:16:40;;;;;;;7.53;5.15;;;30.10;62.60;;;;;;5032309;28;20041;-72
2022/05/18 12:19:13;;;;;;;6.97;4.90;;;29.90;63.00;;;;;;5034157;28;20048;-71
2022/05/18 12:21:45;;;;;;;6.72;4.78;;;29.80;62.90;;;;;;5039977;28;20162;-72
2022/05/18 12:24:10;;;;;;;;;;;29.70;63.40;;;;;;5046348;28;20071;-71
2022/05/18 12:26:41;;;;;;;8.13;5.50;;;29.50;64.00;;;;;;5032175;28;19921;-71
2022/05/18 12:29:09;;;;;;;9.93;6.32;;;29.40;64.10;;;;;;5034814;28;20120;-72
2022/05/18 12:31:36;;;;;;;9.85;8.27;;;29.30;65.40;;;;;;5035367;28;20041;-72
2022/05/18 12:34:14;;;;;;;10.60;8.07;;;29.20;66.00;;;;;;5036764;28;20044;-72
2022/05/18 12:37:15;;;;;;;10.50;8.23;;;29.10;65.60;;;;;;5037099;28;20081;-72
2022/05/18 12:39:45;;;;;;;8.40;6.93;;;29.10;66.40;;;;;;5033554;28;20053;-72
2022/05/18 12:42:21;;;;;;;8.87;6.67;;;29.10;67.20;;;;;;5032722;28;20410;-72
2022/05/18 12:44:54;;;;;;;7.43;5.97;;;29.10;66.70;;;;;;5053381;28;20053;-72
2022/05/18 12:47:24;;;;;;;7.45;4.93;;;29.20;66.90;;;;;;5034026;28;20536;-72
2022/05/18 12:50:18;;;;;;;6.47;4.60;;;29.30;67.70;;;;;;5033576;28;20037;-72
2022/05/18 12:52:55;;;;;;;5.43;4.72;;;29.30;67.20;;;;;;5024735;28;20490;-72
2022/05/18 12:55:30;;;;;;;6.75;4.35;;;29.30;66.10;;;;;;5035780;28;20091;-72
2022/05/18 12:58:08;;;;;;;6.78;5.40;;;29.40;67.20;;;;;;5018986;28;20084;-72
2022/05/18 13:01:01;;;;;;;12.05;5.28;;;29.40;65.60;;;;;;5036140;28;20049;-72
2022/05/18 13:03:40;;;;;;;7.07;4.72;;;29.50;65.60;;;;;;5036572;28;20381;-72
2022/05/18 13:06:22;;;;;;;4.65;3.95;;;29.40;65.60;;;;;;5036219;28;20598;-72
2022/05/18 13:08:58;;;;;;;5.03;4.43;;;29.30;66.40;;;;;;5052773;28;20380;-72
2022/05/18 13:11:23;;;;;;;3.78;3.25;;;29.20;65.30;;;;;;5035613;28;20188;-72
2022/05/18 13:14:01;;;;;;;6.53;4.20;;;29.20;66.70;;;;;;5051530;28;20626;-72
2022/05/18 13:16:38;;;;;;;8.32;4.65;;;29.40;66.70;;;;;;5033319;28;20044;-73
2022/05/18 13:19:13;;;;;;;6.10;4.38;;;29.70;67.60;;;;;;5038010;28;20032;-72
2022/05/18 13:21:43;;;;;;;6.25;3.70;;;29.80;66.40;;;;;;5047638;28;20094;-73